sensor_id;sensor_type;location;lat;lon;timestamp;temperature;humidity
75170;SHT31;63749;49.186;9.222;2022-10-16T00:00:16;16.00;91.20
75170;SHT31;63749;49.186;9.222;2022-10-16T00:02:42;15.97;91.48
75170;SHT31;63749;49.186;9.222;2022-10-16T00:05:07;15.90;91.72
75170;SHT31;63749;49.186;9.222;2022-10-16T00:07:33;15.80;91.85
75170;SHT31;63749;49.186;9.222;2022-10-16T00:09:58;15.77;91.91
75170;SHT31;63749;49.186;9.222;2022-10-16T00:12:23;15.79;91.91
75170;SHT31;63749;49.186;9.222;2022-10-16T00:14:48;15.71;91.93
75170;SHT31;63749;49.186;9.222;2022-10-16T00:17:14;15.67;92.14
75170;SHT31;63749;49.186;9.222;2022-10-16T00:19:39;15.66;91.99
75170;SHT31;63749;49.186;9.222;2022-10-16T00:22:04;15.63;92.12
75170;SHT31;63749;49.186;9.222;2022-10-16T00:24:30;15.64;92.24
75170;SHT31;63749;49.186;9.222;2022-10-16T00:26:55;15.66;91.83
75170;SHT31;63749;49.186;9.222;2022-10-16T00:29:20;15.67;91.65
75170;SHT31;63749;49.186;9.222;2022-10-16T00:31:46;15.67;91.68
75170;SHT31;63749;49.186;9.222;2022-10-16T00:34:11;15.73;91.56
75170;SHT31;63749;49.186;9.222;2022-10-16T00:36:36;15.76;91.57
75170;SHT31;63749;49.186;9.222;2022-10-16T00:39:02;15.74;91.37
75170;SHT31;63749;49.186;9.222;2022-10-16T00:41:28;15.79;91.25
75170;SHT31;63749;49.186;9.222;2022-10-16T00:43:55;15.93;90.23
75170;SHT31;63749;49.186;9.222;2022-10-16T00:46:32;15.96;90.26
75170;SHT31;63749;49.186;9.222;2022-10-16T00:49:04;15.98;90.47
75170;SHT31;63749;49.186;9.222;2022-10-16T00:51:37;16.01;90.42
75170;SHT31;63749;49.186;9.222;2022-10-16T00:54:06;16.01;90.53
75170;SHT31;63749;49.186;9.222;2022-10-16T00:56:33;16.03;90.31
75170;SHT31;63749;49.186;9.222;2022-10-16T00:58:59;16.04;90.46
75170;SHT31;63749;49.186;9.222;2022-10-16T01:01:26;16.07;90.36
75170;SHT31;63749;49.186;9.222;2022-10-16T01:03:52;16.04;90.61
75170;SHT31;63749;49.186;9.222;2022-10-16T01:06:24;16.07;90.38
75170;SHT31;63749;49.186;9.222;2022-10-16T01:09:52;16.08;90.56
75170;SHT31;63749;49.186;9.222;2022-10-16T01:12:16;16.08;90.24
75170;SHT31;63749;49.186;9.222;2022-10-16T01:14:58;16.08;90.05
75170;SHT31;63749;49.186;9.222;2022-10-16T01:20:12;16.14;89.81
75170;SHT31;63749;49.186;9.222;2022-10-16T01:22:50;16.13;89.76
75170;SHT31;63749;49.186;9.222;2022-10-16T01:28:02;16.10;89.86
75170;SHT31;63749;49.186;9.222;2022-10-16T01:30:32;16.10;89.93
75170;SHT31;63749;49.186;9.222;2022-10-16T01:33:21;16.13;89.52
75170;SHT31;63749;49.186;9.222;2022-10-16T01:35:52;16.10;89.66
75170;SHT31;63749;49.186;9.222;2022-10-16T01:38:29;16.11;89.14
75170;SHT31;63749;49.186;9.222;2022-10-16T01:41:04;16.21;88.71
75170;SHT31;63749;49.186;9.222;2022-10-16T01:43:48;16.24;88.59
75170;SHT31;63749;49.186;9.222;2022-10-16T01:46:17;16.26;88.65
75170;SHT31;63749;49.186;9.222;2022-10-16T01:48:43;16.28;88.49
75170;SHT31;63749;49.186;9.222;2022-10-16T01:51:14;16.29;88.57
75170;SHT31;63749;49.186;9.222;2022-10-16T01:53:43;16.42;87.96
75170;SHT31;63749;49.186;9.222;2022-10-16T01:56:12;16.41;87.95
75170;SHT31;63749;49.186;9.222;2022-10-16T01:58:44;16.49;87.66
75170;SHT31;63749;49.186;9.222;2022-10-16T02:01:11;16.47;87.84
75170;SHT31;63749;49.186;9.222;2022-10-16T02:03:40;16.47;87.85
75170;SHT31;63749;49.186;9.222;2022-10-16T02:06:07;16.49;87.23
75170;SHT31;63749;49.186;9.222;2022-10-16T02:08:33;16.49;87.43
75170;SHT31;63749;49.186;9.222;2022-10-16T02:10:59;16.51;87.74
75170;SHT31;63749;49.186;9.222;2022-10-16T02:13:35;16.51;87.30
75170;SHT31;63749;49.186;9.222;2022-10-16T02:16:02;16.49;87.31
75170;SHT31;63749;49.186;9.222;2022-10-16T02:18:28;16.53;87.40
75170;SHT31;63749;49.186;9.222;2022-10-16T02:21:02;16.52;87.68
75170;SHT31;63749;49.186;9.222;2022-10-16T02:23:42;16.52;87.39
75170;SHT31;63749;49.186;9.222;2022-10-16T02:26:13;16.56;87.15
75170;SHT31;63749;49.186;9.222;2022-10-16T02:28:45;16.56;87.13
75170;SHT31;63749;49.186;9.222;2022-10-16T02:31:13;16.56;87.28
75170;SHT31;63749;49.186;9.222;2022-10-16T02:33:41;16.53;87.74
75170;SHT31;63749;49.186;9.222;2022-10-16T02:36:08;16.55;87.68
75170;SHT31;63749;49.186;9.222;2022-10-16T02:38:33;16.48;87.68
75170;SHT31;63749;49.186;9.222;2022-10-16T02:40:59;16.45;87.66
75170;SHT31;63749;49.186;9.222;2022-10-16T02:43:25;16.48;87.84
75170;SHT31;63749;49.186;9.222;2022-10-16T02:45:51;16.49;87.63
75170;SHT31;63749;49.186;9.222;2022-10-16T02:48:16;16.52;87.57
75170;SHT31;63749;49.186;9.222;2022-10-16T02:50:41;16.47;87.86
75170;SHT31;63749;49.186;9.222;2022-10-16T02:53:07;16.45;88.13
75170;SHT31;63749;49.186;9.222;2022-10-16T02:55:32;16.42;88.44
75170;SHT31;63749;49.186;9.222;2022-10-16T02:57:58;16.36;88.54
75170;SHT31;63749;49.186;9.222;2022-10-16T03:00:23;16.40;88.53
75170;SHT31;63749;49.186;9.222;2022-10-16T03:02:49;16.36;88.44
75170;SHT31;63749;49.186;9.222;2022-10-16T03:05:15;16.41;88.17
75170;SHT31;63749;49.186;9.222;2022-10-16T03:07:40;16.40;88.44
75170;SHT31;63749;49.186;9.222;2022-10-16T03:10:06;16.40;88.43
75170;SHT31;63749;49.186;9.222;2022-10-16T03:12:32;16.40;88.51
75170;SHT31;63749;49.186;9.222;2022-10-16T03:14:57;16.40;88.36
75170;SHT31;63749;49.186;9.222;2022-10-16T03:17:23;16.36;88.30
75170;SHT31;63749;49.186;9.222;2022-10-16T03:19:49;16.40;88.51
75170;SHT31;63749;49.186;9.222;2022-10-16T03:22:14;16.41;88.44
75170;SHT31;63749;49.186;9.222;2022-10-16T03:24:39;16.40;88.29
75170;SHT31;63749;49.186;9.222;2022-10-16T03:27:05;16.41;88.34
75170;SHT31;63749;49.186;9.222;2022-10-16T03:29:30;16.41;88.40
75170;SHT31;63749;49.186;9.222;2022-10-16T03:31:57;16.42;88.28
75170;SHT31;63749;49.186;9.222;2022-10-16T03:34:22;16.45;88.04
75170;SHT31;63749;49.186;9.222;2022-10-16T03:36:47;16.47;88.08
75170;SHT31;63749;49.186;9.222;2022-10-16T03:39:13;16.47;88.03
75170;SHT31;63749;49.186;9.222;2022-10-16T03:41:38;16.48;87.82
75170;SHT31;63749;49.186;9.222;2022-10-16T03:44:04;16.48;87.75
75170;SHT31;63749;49.186;9.222;2022-10-16T03:46:29;16.52;87.81
75170;SHT31;63749;49.186;9.222;2022-10-16T03:48:54;16.49;87.76
75170;SHT31;63749;49.186;9.222;2022-10-16T03:51:20;16.49;87.69
75170;SHT31;63749;49.186;9.222;2022-10-16T03:53:45;16.53;87.46
75170;SHT31;63749;49.186;9.222;2022-10-16T03:56:10;16.59;87.26
75170;SHT31;63749;49.186;9.222;2022-10-16T03:58:37;16.61;87.23
75170;SHT31;63749;49.186;9.222;2022-10-16T04:01:03;16.59;87.56
75170;SHT31;63749;49.186;9.222;2022-10-16T04:03:30;16.55;87.69
75170;SHT31;63749;49.186;9.222;2022-10-16T04:05:55;16.55;87.63
75170;SHT31;63749;49.186;9.222;2022-10-16T04:08:20;16.61;87.46
75170;SHT31;63749;49.186;9.222;2022-10-16T04:10:46;16.59;87.68
75170;SHT31;63749;49.186;9.222;2022-10-16T04:13:11;16.59;87.72
75170;SHT31;63749;49.186;9.222;2022-10-16T04:15:37;16.62;87.58
75170;SHT31;63749;49.186;9.222;2022-10-16T04:18:03;16.65;87.38
75170;SHT31;63749;49.186;9.222;2022-10-16T04:20:28;16.62;87.51
75170;SHT31;63749;49.186;9.222;2022-10-16T04:22:54;16.66;87.46
75170;SHT31;63749;49.186;9.222;2022-10-16T04:25:20;16.68;87.02
75170;SHT31;63749;49.186;9.222;2022-10-16T04:27:45;16.69;86.80
75170;SHT31;63749;49.186;9.222;2022-10-16T04:30:10;16.68;86.97
75170;SHT31;63749;49.186;9.222;2022-10-16T04:32:36;16.71;86.81
75170;SHT31;63749;49.186;9.222;2022-10-16T04:35:01;16.79;86.39
75170;SHT31;63749;49.186;9.222;2022-10-16T04:37:28;16.75;86.36
75170;SHT31;63749;49.186;9.222;2022-10-16T04:39:53;16.72;86.63
75170;SHT31;63749;49.186;9.222;2022-10-16T04:42:19;16.69;86.93
75170;SHT31;63749;49.186;9.222;2022-10-16T04:44:45;16.61;87.23
75170;SHT31;63749;49.186;9.222;2022-10-16T04:47:10;16.55;87.70
75170;SHT31;63749;49.186;9.222;2022-10-16T04:49:35;16.49;87.81
75170;SHT31;63749;49.186;9.222;2022-10-16T04:52:01;16.52;87.72
75170;SHT31;63749;49.186;9.222;2022-10-16T04:54:26;16.55;87.50
75170;SHT31;63749;49.186;9.222;2022-10-16T04:56:51;16.52;87.43
75170;SHT31;63749;49.186;9.222;2022-10-16T04:59:18;16.55;87.72
75170;SHT31;63749;49.186;9.222;2022-10-16T05:01:44;16.53;87.84
75170;SHT31;63749;49.186;9.222;2022-10-16T05:04:09;16.53;87.80
75170;SHT31;63749;49.186;9.222;2022-10-16T05:06:35;16.53;87.76
75170;SHT31;63749;49.186;9.222;2022-10-16T05:09:00;16.52;87.79
75170;SHT31;63749;49.186;9.222;2022-10-16T05:11:25;16.51;87.82
75170;SHT31;63749;49.186;9.222;2022-10-16T05:13:51;16.51;87.88
75170;SHT31;63749;49.186;9.222;2022-10-16T05:16:16;16.48;88.03
75170;SHT31;63749;49.186;9.222;2022-10-16T05:18:42;16.49;88.31
75170;SHT31;63749;49.186;9.222;2022-10-16T05:21:08;16.45;88.15
75170;SHT31;63749;49.186;9.222;2022-10-16T05:23:33;16.45;88.29
75170;SHT31;63749;49.186;9.222;2022-10-16T05:25:59;16.47;88.20
75170;SHT31;63749;49.186;9.222;2022-10-16T05:28:28;16.48;88.12
75170;SHT31;63749;49.186;9.222;2022-10-16T05:30:55;16.41;88.50
75170;SHT31;63749;49.186;9.222;2022-10-16T05:33:23;16.36;88.70
75170;SHT31;63749;49.186;9.222;2022-10-16T05:35:50;16.32;88.67
75170;SHT31;63749;49.186;9.222;2022-10-16T05:38:16;16.29;88.66
75170;SHT31;63749;49.186;9.222;2022-10-16T05:40:42;16.25;88.65
75170;SHT31;63749;49.186;9.222;2022-10-16T05:43:07;16.21;88.58
75170;SHT31;63749;49.186;9.222;2022-10-16T05:45:33;16.25;88.32
75170;SHT31;63749;49.186;9.222;2022-10-16T05:47:59;16.24;88.00
75170;SHT31;63749;49.186;9.222;2022-10-16T05:50:24;16.26;87.89
75170;SHT31;63749;49.186;9.222;2022-10-16T05:52:50;16.26;87.92
75170;SHT31;63749;49.186;9.222;2022-10-16T05:55:15;16.28;87.88
75170;SHT31;63749;49.186;9.222;2022-10-16T05:57:40;16.31;87.72
75170;SHT31;63749;49.186;9.222;2022-10-16T06:00:06;16.38;87.46
75170;SHT31;63749;49.186;9.222;2022-10-16T06:02:32;16.40;86.93
75170;SHT31;63749;49.186;9.222;2022-10-16T06:04:57;16.49;86.73
75170;SHT31;63749;49.186;9.222;2022-10-16T06:07:22;16.51;86.43
75170;SHT31;63749;49.186;9.222;2022-10-16T06:09:49;16.49;86.60
75170;SHT31;63749;49.186;9.222;2022-10-16T06:12:15;16.48;86.64
75170;SHT31;63749;49.186;9.222;2022-10-16T06:14:40;16.44;86.99
75170;SHT31;63749;49.186;9.222;2022-10-16T06:17:06;16.41;87.18
75170;SHT31;63749;49.186;9.222;2022-10-16T06:19:31;16.38;87.35
75170;SHT31;63749;49.186;9.222;2022-10-16T06:21:56;16.35;87.78
75170;SHT31;63749;49.186;9.222;2022-10-16T06:24:23;16.40;87.40
75170;SHT31;63749;49.186;9.222;2022-10-16T06:26:48;16.49;86.94
75170;SHT31;63749;49.186;9.222;2022-10-16T06:29:14;16.53;86.80
75170;SHT31;63749;49.186;9.222;2022-10-16T06:31:39;16.52;87.45
75170;SHT31;63749;49.186;9.222;2022-10-16T06:34:04;16.48;87.48
75170;SHT31;63749;49.186;9.222;2022-10-16T06:36:34;16.49;87.51
75170;SHT31;63749;49.186;9.222;2022-10-16T06:38:59;16.49;87.51
75170;SHT31;63749;49.186;9.222;2022-10-16T06:41:25;16.53;87.37
75170;SHT31;63749;49.186;9.222;2022-10-16T06:43:50;16.58;87.15
75170;SHT31;63749;49.186;9.222;2022-10-16T06:46:20;16.61;87.25
75170;SHT31;63749;49.186;9.222;2022-10-16T06:48:46;16.69;87.03
75170;SHT31;63749;49.186;9.222;2022-10-16T06:51:14;16.86;85.62
75170;SHT31;63749;49.186;9.222;2022-10-16T06:53:41;17.00;85.07
75170;SHT31;63749;49.186;9.222;2022-10-16T06:56:13;16.93;85.61
75170;SHT31;63749;49.186;9.222;2022-10-16T06:58:39;16.93;85.67
75170;SHT31;63749;49.186;9.222;2022-10-16T07:01:05;16.92;85.88
75170;SHT31;63749;49.186;9.222;2022-10-16T07:03:31;16.99;85.80
75170;SHT31;63749;49.186;9.222;2022-10-16T07:05:56;17.00;85.98
75170;SHT31;63749;49.186;9.222;2022-10-16T07:08:22;16.99;86.22
75170;SHT31;63749;49.186;9.222;2022-10-16T07:10:47;17.04;86.61
75170;SHT31;63749;49.186;9.222;2022-10-16T07:13:13;16.96;87.33
75170;SHT31;63749;49.186;9.222;2022-10-16T07:15:40;16.92;87.42
75170;SHT31;63749;49.186;9.222;2022-10-16T07:18:06;16.94;87.22
75170;SHT31;63749;49.186;9.222;2022-10-16T07:20:32;16.90;87.63
75170;SHT31;63749;49.186;9.222;2022-10-16T07:22:57;16.89;88.06
75170;SHT31;63749;49.186;9.222;2022-10-16T07:25:22;16.84;88.19
75170;SHT31;63749;49.186;9.222;2022-10-16T07:27:48;16.93;87.96
75170;SHT31;63749;49.186;9.222;2022-10-16T07:30:13;16.97;87.86
75170;SHT31;63749;49.186;9.222;2022-10-16T07:32:38;17.09;87.67
75170;SHT31;63749;49.186;9.222;2022-10-16T07:35:04;17.20;87.27
75170;SHT31;63749;49.186;9.222;2022-10-16T07:37:30;17.31;86.60
75170;SHT31;63749;49.186;9.222;2022-10-16T07:39:55;17.40;86.28
75170;SHT31;63749;49.186;9.222;2022-10-16T07:42:21;17.44;86.00
75170;SHT31;63749;49.186;9.222;2022-10-16T07:44:46;17.48;85.39
75170;SHT31;63749;49.186;9.222;2022-10-16T07:47:11;17.57;85.46
75170;SHT31;63749;49.186;9.222;2022-10-16T07:49:37;17.72;85.11
75170;SHT31;63749;49.186;9.222;2022-10-16T07:52:02;17.92;84.58
75170;SHT31;63749;49.186;9.222;2022-10-16T07:54:27;18.05;84.28
75170;SHT31;63749;49.186;9.222;2022-10-16T07:56:53;18.13;83.75
75170;SHT31;63749;49.186;9.222;2022-10-16T07:59:18;18.22;83.24
75170;SHT31;63749;49.186;9.222;2022-10-16T08:01:43;18.43;82.68
75170;SHT31;63749;49.186;9.222;2022-10-16T08:04:09;18.49;81.44
75170;SHT31;63749;49.186;9.222;2022-10-16T08:06:37;18.47;80.24
75170;SHT31;63749;49.186;9.222;2022-10-16T08:09:03;18.58;79.70
75170;SHT31;63749;49.186;9.222;2022-10-16T08:11:28;18.65;79.27
75170;SHT31;63749;49.186;9.222;2022-10-16T08:13:54;18.80;78.95
75170;SHT31;63749;49.186;9.222;2022-10-16T08:16:19;18.78;78.84
75170;SHT31;63749;49.186;9.222;2022-10-16T08:18:45;18.92;77.74
75170;SHT31;63749;49.186;9.222;2022-10-16T08:21:15;19.12;78.10
75170;SHT31;63749;49.186;9.222;2022-10-16T08:23:41;19.36;77.06
75170;SHT31;63749;49.186;9.222;2022-10-16T08:26:07;19.57;76.35
75170;SHT31;63749;49.186;9.222;2022-10-16T08:28:33;19.83;75.52
75170;SHT31;63749;49.186;9.222;2022-10-16T08:31:08;19.83;74.71
75170;SHT31;63749;49.186;9.222;2022-10-16T08:33:33;19.88;72.88
75170;SHT31;63749;49.186;9.222;2022-10-16T08:36:00;19.90;72.95
75170;SHT31;63749;49.186;9.222;2022-10-16T08:38:26;20.13;72.37
75170;SHT31;63749;49.186;9.222;2022-10-16T08:41:01;20.03;71.98
75170;SHT31;63749;49.186;9.222;2022-10-16T08:43:41;20.15;71.29
75170;SHT31;63749;49.186;9.222;2022-10-16T08:46:36;20.03;72.31
75170;SHT31;63749;49.186;9.222;2022-10-16T08:49:10;20.17;71.80
75170;SHT31;63749;49.186;9.222;2022-10-16T08:51:36;20.24;70.45
75170;SHT31;63749;49.186;9.222;2022-10-16T08:54:18;20.51;69.49
75170;SHT31;63749;49.186;9.222;2022-10-16T08:56:46;20.59;69.44
75170;SHT31;63749;49.186;9.222;2022-10-16T08:59:13;20.51;69.50
75170;SHT31;63749;49.186;9.222;2022-10-16T09:01:41;20.61;69.56
75170;SHT31;63749;49.186;9.222;2022-10-16T09:07:19;20.90;67.96
75170;SHT31;63749;49.186;9.222;2022-10-16T09:16:14;20.77;68.60
75170;SHT31;63749;49.186;9.222;2022-10-16T09:18:52;20.96;68.46
75170;SHT31;63749;49.186;9.222;2022-10-16T09:21:24;21.23;67.64
75170;SHT31;63749;49.186;9.222;2022-10-16T09:23:51;21.47;66.64
75170;SHT31;63749;49.186;9.222;2022-10-16T09:26:17;21.61;66.20
75170;SHT31;63749;49.186;9.222;2022-10-16T09:28:44;21.68;65.66
75170;SHT31;63749;49.186;9.222;2022-10-16T09:31:15;22.02;65.36
75170;SHT31;63749;49.186;9.222;2022-10-16T09:33:42;22.53;62.91
75170;SHT31;63749;49.186;9.222;2022-10-16T09:36:09;22.36;63.34
75170;SHT31;63749;49.186;9.222;2022-10-16T09:38:36;22.17;64.35
75170;SHT31;63749;49.186;9.222;2022-10-16T09:43:53;22.80;60.76
75170;SHT31;63749;49.186;9.222;2022-10-16T09:46:35;22.36;63.82
75170;SHT31;63749;49.186;9.222;2022-10-16T09:49:22;22.26;63.56
75170;SHT31;63749;49.186;9.222;2022-10-16T09:51:49;21.95;64.42
75170;SHT31;63749;49.186;9.222;2022-10-16T09:54:19;21.93;64.34
75170;SHT31;63749;49.186;9.222;2022-10-16T09:56:46;21.96;64.93
75170;SHT31;63749;49.186;9.222;2022-10-16T09:59:21;22.16;64.46
75170;SHT31;63749;49.186;9.222;2022-10-16T10:01:53;22.02;64.63
75170;SHT31;63749;49.186;9.222;2022-10-16T10:04:22;21.99;64.01
75170;SHT31;63749;49.186;9.222;2022-10-16T10:06:50;21.81;64.89
75170;SHT31;63749;49.186;9.222;2022-10-16T10:11:56;22.28;62.47
75170;SHT31;63749;49.186;9.222;2022-10-16T10:16:53;22.06;62.87
75170;SHT31;63749;49.186;9.222;2022-10-16T10:19:27;22.23;62.95
75170;SHT31;63749;49.186;9.222;2022-10-16T10:21:52;22.24;63.35
75170;SHT31;63749;49.186;9.222;2022-10-16T10:24:18;22.40;63.07
75170;SHT31;63749;49.186;9.222;2022-10-16T10:32:19;22.30;62.50
75170;SHT31;63749;49.186;9.222;2022-10-16T10:34:58;22.12;63.39
75170;SHT31;63749;49.186;9.222;2022-10-16T10:37:37;22.24;63.38
75170;SHT31;63749;49.186;9.222;2022-10-16T10:45:43;22.65;62.71
75170;SHT31;63749;49.186;9.222;2022-10-16T10:56:28;22.98;61.24
75170;SHT31;63749;49.186;9.222;2022-10-16T10:59:41;23.14;62.16
75170;SHT31;63749;49.186;9.222;2022-10-16T11:02:48;23.10;60.81
75170;SHT31;63749;49.186;9.222;2022-10-16T11:07:58;23.31;61.12
75170;SHT31;63749;49.186;9.222;2022-10-16T11:10:47;23.39;59.13
75170;SHT31;63749;49.186;9.222;2022-10-16T11:15:42;22.57;62.90
75170;SHT31;63749;49.186;9.222;2022-10-16T11:18:16;22.54;62.66
75170;SHT31;63749;49.186;9.222;2022-10-16T11:20:50;22.50;62.83
75170;SHT31;63749;49.186;9.222;2022-10-16T11:23:40;22.63;61.14
75170;SHT31;63749;49.186;9.222;2022-10-16T11:26:18;22.64;60.58
75170;SHT31;63749;49.186;9.222;2022-10-16T11:28:53;22.47;62.58
75170;SHT31;63749;49.186;9.222;2022-10-16T11:31:39;22.73;60.53
75170;SHT31;63749;49.186;9.222;2022-10-16T11:36:53;22.81;60.30
75170;SHT31;63749;49.186;9.222;2022-10-16T11:39:26;22.98;59.71
75170;SHT31;63749;49.186;9.222;2022-10-16T11:42:13;23.05;58.95
75170;SHT31;63749;49.186;9.222;2022-10-16T11:44:52;23.29;57.35
75170;SHT31;63749;49.186;9.222;2022-10-16T11:47:41;23.08;58.79
75170;SHT31;63749;49.186;9.222;2022-10-16T11:53:04;23.28;58.39
75170;SHT31;63749;49.186;9.222;2022-10-16T11:55:39;23.28;59.00
75170;SHT31;63749;49.186;9.222;2022-10-16T11:58:30;23.01;59.78
75170;SHT31;63749;49.186;9.222;2022-10-16T12:03:40;22.71;61.72
75170;SHT31;63749;49.186;9.222;2022-10-16T12:06:25;22.73;60.97
75170;SHT31;63749;49.186;9.222;2022-10-16T12:08:53;22.91;60.17
75170;SHT31;63749;49.186;9.222;2022-10-16T12:13:50;23.32;59.78
75170;SHT31;63749;49.186;9.222;2022-10-16T12:18:45;23.53;59.93
75170;SHT31;63749;49.186;9.222;2022-10-16T12:21:12;23.77;58.59
75170;SHT31;63749;49.186;9.222;2022-10-16T12:23:50;24.31;55.89
75170;SHT31;63749;49.186;9.222;2022-10-16T12:26:32;24.35;55.46
75170;SHT31;63749;49.186;9.222;2022-10-16T12:29:32;24.37;55.52
75170;SHT31;63749;49.186;9.222;2022-10-16T12:31:57;24.38;56.33
75170;SHT31;63749;49.186;9.222;2022-10-16T12:37:27;24.75;56.98
75170;SHT31;63749;49.186;9.222;2022-10-16T12:39:54;24.76;56.70
75170;SHT31;63749;49.186;9.222;2022-10-16T12:42:23;24.71;56.17
75170;SHT31;63749;49.186;9.222;2022-10-16T12:44:55;24.85;56.52
75170;SHT31;63749;49.186;9.222;2022-10-16T12:49:56;25.24;54.31
75170;SHT31;63749;49.186;9.222;2022-10-16T12:52:37;25.31;53.31
75170;SHT31;63749;49.186;9.222;2022-10-16T12:55:05;25.22;53.76
75170;SHT31;63749;49.186;9.222;2022-10-16T12:58:00;24.82;56.37
75170;SHT31;63749;49.186;9.222;2022-10-16T13:00:50;24.92;54.10
75170;SHT31;63749;49.186;9.222;2022-10-16T13:14:53;24.00;57.26
75170;SHT31;63749;49.186;9.222;2022-10-16T13:17:40;24.04;56.29
75170;SHT31;63749;49.186;9.222;2022-10-16T13:23:18;23.97;56.49
75170;SHT31;63749;49.186;9.222;2022-10-16T13:26:03;23.93;56.64
75170;SHT31;63749;49.186;9.222;2022-10-16T13:28:32;23.97;56.73
75170;SHT31;63749;49.186;9.222;2022-10-16T13:30:59;23.87;57.04
75170;SHT31;63749;49.186;9.222;2022-10-16T13:33:35;23.59;57.72
75170;SHT31;63749;49.186;9.222;2022-10-16T13:36:02;23.53;57.63
75170;SHT31;63749;49.186;9.222;2022-10-16T13:38:30;23.39;58.05
75170;SHT31;63749;49.186;9.222;2022-10-16T13:46:11;22.98;60.50
75170;SHT31;63749;49.186;9.222;2022-10-16T13:48:37;22.88;61.26
75170;SHT31;63749;49.186;9.222;2022-10-16T13:51:06;23.04;60.55
75170;SHT31;63749;49.186;9.222;2022-10-16T13:53:36;23.05;59.97
75170;SHT31;63749;49.186;9.222;2022-10-16T13:56:04;22.75;61.53
75170;SHT31;63749;49.186;9.222;2022-10-16T13:58:30;22.86;60.20
75170;SHT31;63749;49.186;9.222;2022-10-16T14:01:00;22.63;61.27
75170;SHT31;63749;49.186;9.222;2022-10-16T14:03:28;22.50;62.22
75170;SHT31;63749;49.186;9.222;2022-10-16T14:05:59;22.49;62.24
75170;SHT31;63749;49.186;9.222;2022-10-16T14:08:26;22.68;60.60
75170;SHT31;63749;49.186;9.222;2022-10-16T14:10:55;22.67;61.45
75170;SHT31;63749;49.186;9.222;2022-10-16T14:13:44;22.77;60.95
75170;SHT31;63749;49.186;9.222;2022-10-16T14:16:16;22.84;61.78
75170;SHT31;63749;49.186;9.222;2022-10-16T14:18:46;22.84;61.54
75170;SHT31;63749;49.186;9.222;2022-10-16T14:21:15;23.00;61.41
75170;SHT31;63749;49.186;9.222;2022-10-16T14:23:42;23.00;61.50
75170;SHT31;63749;49.186;9.222;2022-10-16T14:28:38;22.87;61.67
75170;SHT31;63749;49.186;9.222;2022-10-16T14:31:27;22.78;60.81
75170;SHT31;63749;49.186;9.222;2022-10-16T14:33:53;22.70;61.63
75170;SHT31;63749;49.186;9.222;2022-10-16T14:36:18;22.61;61.99
75170;SHT31;63749;49.186;9.222;2022-10-16T14:38:55;22.44;63.73
75170;SHT31;63749;49.186;9.222;2022-10-16T14:41:21;22.40;64.56
75170;SHT31;63749;49.186;9.222;2022-10-16T14:43:51;22.29;65.21
75170;SHT31;63749;49.186;9.222;2022-10-16T14:46:21;22.22;65.49
75170;SHT31;63749;49.186;9.222;2022-10-16T14:48:51;22.12;66.07
75170;SHT31;63749;49.186;9.222;2022-10-16T14:51:20;22.09;67.11
75170;SHT31;63749;49.186;9.222;2022-10-16T14:53:46;21.96;67.79
75170;SHT31;63749;49.186;9.222;2022-10-16T14:56:23;21.91;68.10
75170;SHT31;63749;49.186;9.222;2022-10-16T14:58:50;21.88;68.46
75170;SHT31;63749;49.186;9.222;2022-10-16T15:01:16;21.74;69.08
75170;SHT31;63749;49.186;9.222;2022-10-16T15:03:43;21.69;69.40
75170;SHT31;63749;49.186;9.222;2022-10-16T15:06:12;21.64;69.72
75170;SHT31;63749;49.186;9.222;2022-10-16T15:08:39;21.51;70.33
75170;SHT31;63749;49.186;9.222;2022-10-16T15:11:04;21.53;70.34
75170;SHT31;63749;49.186;9.222;2022-10-16T15:13:30;21.51;70.17
75170;SHT31;63749;49.186;9.222;2022-10-16T15:15:55;21.64;69.87
75170;SHT31;63749;49.186;9.222;2022-10-16T15:18:20;21.59;70.34
75170;SHT31;63749;49.186;9.222;2022-10-16T15:20:50;21.51;70.38
75170;SHT31;63749;49.186;9.222;2022-10-16T15:23:18;21.79;69.75
75170;SHT31;63749;49.186;9.222;2022-10-16T15:25:46;21.78;70.31
75170;SHT31;63749;49.186;9.222;2022-10-16T15:28:13;21.69;70.55
75170;SHT31;63749;49.186;9.222;2022-10-16T15:30:38;21.72;70.49
75170;SHT31;63749;49.186;9.222;2022-10-16T15:33:08;21.75;70.63
75170;SHT31;63749;49.186;9.222;2022-10-16T15:35:36;21.77;70.27
75170;SHT31;63749;49.186;9.222;2022-10-16T15:38:01;21.79;70.23
75170;SHT31;63749;49.186;9.222;2022-10-16T15:40:26;21.74;70.39
75170;SHT31;63749;49.186;9.222;2022-10-16T15:42:51;21.68;70.52
75170;SHT31;63749;49.186;9.222;2022-10-16T15:45:17;21.55;71.07
75170;SHT31;63749;49.186;9.222;2022-10-16T15:47:44;21.57;70.92
75170;SHT31;63749;49.186;9.222;2022-10-16T15:50:11;21.47;71.39
75170;SHT31;63749;49.186;9.222;2022-10-16T15:52:38;21.28;71.79
75170;SHT31;63749;49.186;9.222;2022-10-16T15:55:08;21.14;72.66
75170;SHT31;63749;49.186;9.222;2022-10-16T15:57:33;20.97;73.80
75170;SHT31;63749;49.186;9.222;2022-10-16T15:59:59;20.82;74.71
75170;SHT31;63749;49.186;9.222;2022-10-16T16:02:24;20.71;74.82
75170;SHT31;63749;49.186;9.222;2022-10-16T16:04:49;20.55;75.35
75170;SHT31;63749;49.186;9.222;2022-10-16T16:07:15;20.48;76.06
75170;SHT31;63749;49.186;9.222;2022-10-16T16:09:40;20.37;76.59
75170;SHT31;63749;49.186;9.222;2022-10-16T16:12:05;20.24;76.70
75170;SHT31;63749;49.186;9.222;2022-10-16T16:14:31;20.08;77.05
75170;SHT31;63749;49.186;9.222;2022-10-16T16:16:57;20.01;77.31
75170;SHT31;63749;49.186;9.222;2022-10-16T16:19:22;19.88;78.59
75170;SHT31;63749;49.186;9.222;2022-10-16T16:21:48;19.78;78.61
75170;SHT31;63749;49.186;9.222;2022-10-16T16:24:14;19.65;79.24
75170;SHT31;63749;49.186;9.222;2022-10-16T16:26:39;19.65;78.70
75170;SHT31;63749;49.186;9.222;2022-10-16T16:29:11;19.62;78.91
75170;SHT31;63749;49.186;9.222;2022-10-16T16:31:37;19.63;79.29
75170;SHT31;63749;49.186;9.222;2022-10-16T16:34:02;19.53;78.93
75170;SHT31;63749;49.186;9.222;2022-10-16T16:36:28;19.47;78.86
75170;SHT31;63749;49.186;9.222;2022-10-16T16:38:53;19.40;79.24
75170;SHT31;63749;49.186;9.222;2022-10-16T16:41:21;19.29;79.66
75170;SHT31;63749;49.186;9.222;2022-10-16T16:43:48;19.19;80.19
75170;SHT31;63749;49.186;9.222;2022-10-16T16:46:14;19.07;81.17
75170;SHT31;63749;49.186;9.222;2022-10-16T16:48:40;18.97;81.67
75170;SHT31;63749;49.186;9.222;2022-10-16T16:51:08;18.83;81.70
75170;SHT31;63749;49.186;9.222;2022-10-16T16:53:34;18.74;82.28
75170;SHT31;63749;49.186;9.222;2022-10-16T16:56:05;18.74;82.97
75170;SHT31;63749;49.186;9.222;2022-10-16T16:58:32;18.58;82.49
75170;SHT31;63749;49.186;9.222;2022-10-16T17:00:58;18.51;82.71
75170;SHT31;63749;49.186;9.222;2022-10-16T17:03:34;18.47;82.75
75170;SHT31;63749;49.186;9.222;2022-10-16T17:06:09;18.43;82.51
75170;SHT31;63749;49.186;9.222;2022-10-16T17:08:36;18.50;82.31